createdAt,value
2018-09-11T00:01:58.691Z,2.97
2018-09-11T00:04:27.096Z,3.00
2018-09-11T00:06:55.561Z,3.37
2018-09-11T00:09:23.983Z,3.23
2018-09-11T00:11:52.464Z,4.00
2018-09-11T00:14:20.884Z,2.80
2018-09-11T00:16:49.353Z,3.40
2018-09-11T00:19:17.797Z,2.87
2018-09-11T00:21:46.244Z,3.03
2018-09-11T00:24:14.691Z,2.93
2018-09-11T00:26:43.142Z,3.07
2018-09-11T00:29:11.596Z,2.70
2018-09-11T00:31:40.045Z,3.30
2018-09-11T00:34:09.484Z,3.40
2018-09-11T00:36:38.061Z,3.20
2018-09-11T00:39:07.340Z,4.10
2018-09-11T00:41:35.789Z,3.57
2018-09-11T00:44:04.307Z,3.27
2018-09-11T00:46:32.768Z,3.87
2018-09-11T00:49:01.259Z,3.60
2018-09-11T00:51:29.828Z,3.20
2018-09-11T00:53:58.328Z,3.30
2018-09-11T00:56:26.764Z,3.90
2018-09-11T00:58:55.240Z,3.70
2018-09-11T01:01:23.672Z,3.87
2018-09-11T01:03:52.115Z,3.57
2018-09-11T01:06:20.556Z,3.50
2018-09-11T01:08:48.999Z,3.40
2018-09-11T01:11:17.471Z,3.90
2018-09-11T01:13:45.984Z,3.90
2018-09-11T01:16:14.408Z,3.97
2018-09-11T01:18:42.847Z,4.13
2018-09-11T01:21:11.291Z,3.50
2018-09-11T01:23:39.716Z,3.90
2018-09-11T01:26:08.168Z,3.47
2018-09-11T01:28:36.620Z,3.63
2018-09-11T01:31:05.314Z,3.70
2018-09-11T01:33:33.735Z,4.60
2018-09-11T01:36:02.279Z,4.30
2018-09-11T01:38:30.724Z,3.23
2018-09-11T01:40:59.158Z,3.50
2018-09-11T01:43:27.705Z,3.47
2018-09-11T01:45:56.164Z,3.43
2018-09-11T01:48:24.584Z,3.73
2018-09-11T01:50:53.076Z,4.07
2018-09-11T01:53:21.495Z,4.47
2018-09-11T01:55:49.951Z,4.20
2018-09-11T01:58:18.413Z,4.30
2018-09-11T02:00:46.873Z,4.07
2018-09-11T02:03:15.324Z,4.40
2018-09-11T02:05:43.808Z,4.07
2018-09-11T02:08:12.239Z,3.90
2018-09-11T02:10:40.699Z,4.00
2018-09-11T02:13:09.129Z,3.37
2018-09-11T02:15:37.597Z,3.57
2018-09-11T02:18:06.151Z,3.70
2018-09-11T02:20:34.591Z,4.50
2018-09-11T02:23:03.013Z,3.53
2018-09-11T02:25:31.490Z,3.60
2018-09-11T02:27:59.900Z,3.50
2018-09-11T02:30:28.368Z,3.60
2018-09-11T02:32:56.806Z,3.40
2018-09-11T02:35:25.338Z,3.60
2018-09-11T02:37:53.757Z,3.63
2018-09-11T02:40:22.171Z,4.60
2018-09-11T02:42:50.636Z,4.30
2018-09-11T02:45:22.681Z,4.20
2018-09-11T02:47:51.938Z,4.53
2018-09-11T02:50:20.388Z,3.87
2018-09-11T02:52:48.845Z,3.90
2018-09-11T02:55:17.289Z,3.90
2018-09-11T02:57:45.772Z,4.30
2018-09-11T03:00:14.224Z,3.50
2018-09-11T03:02:42.712Z,3.67
2018-09-11T03:05:11.143Z,3.63
2018-09-11T03:07:39.621Z,4.10
2018-09-11T03:10:08.108Z,3.70
2018-09-11T03:12:36.683Z,4.17
2018-09-11T03:15:05.168Z,4.33
2018-09-11T03:17:33.585Z,4.50
2018-09-11T03:20:01.984Z,4.83
2018-09-11T03:22:30.381Z,4.43
2018-09-11T03:24:58.764Z,4.53
2018-09-11T03:27:27.203Z,5.43
2018-09-11T03:29:55.764Z,4.23
2018-09-11T03:32:24.232Z,4.40
2018-09-11T03:34:53.035Z,5.07
2018-09-11T03:37:21.847Z,5.07
2018-09-11T03:39:50.232Z,4.43
2018-09-11T03:42:18.611Z,4.10
2018-09-11T03:44:47.016Z,4.30
2018-09-11T03:47:15.436Z,3.90
2018-09-11T03:49:43.832Z,3.60
2018-09-11T03:52:12.227Z,3.93
2018-09-11T03:54:40.618Z,4.77
2018-09-11T03:57:09.028Z,4.30
2018-09-11T03:59:37.474Z,4.30
2018-09-11T04:02:05.940Z,4.43
2018-09-11T04:04:34.331Z,4.50
2018-09-11T04:07:02.730Z,4.30
2018-09-11T04:09:31.140Z,4.37
2018-09-11T04:11:59.552Z,4.67
2018-09-11T04:14:27.960Z,4.40
2018-09-11T04:16:56.384Z,4.00
2018-09-11T04:19:24.808Z,4.00
2018-09-11T04:21:53.215Z,3.80
2018-09-11T04:24:21.633Z,3.97
2018-09-11T04:26:50.074Z,4.33
2018-09-11T04:29:18.547Z,5.10
2018-09-11T04:31:46.945Z,5.90
2018-09-11T04:34:15.419Z,4.67
2018-09-11T04:36:43.828Z,5.13
2018-09-11T04:39:12.247Z,4.57
2018-09-11T04:41:40.641Z,4.90
2018-09-11T04:44:09.075Z,4.27
2018-09-11T04:46:37.479Z,4.50
2018-09-11T04:49:05.916Z,4.57
2018-09-11T04:51:34.408Z,4.13
2018-09-11T04:54:02.827Z,4.00
2018-09-11T04:56:31.234Z,4.67
2018-09-11T04:58:59.668Z,4.00
2018-09-11T05:01:28.538Z,3.90
2018-09-11T05:03:57.007Z,4.80
2018-09-11T05:06:25.432Z,4.93
2018-09-11T05:08:53.848Z,5.57
2018-09-11T05:11:22.275Z,5.10
2018-09-11T05:13:50.664Z,4.20
2018-09-11T05:16:19.147Z,4.70
2018-09-11T05:18:47.612Z,3.77
2018-09-11T05:21:16.033Z,4.03
2018-09-11T05:23:44.475Z,4.27
2018-09-11T05:26:12.924Z,3.70
2018-09-11T05:28:41.352Z,3.83
2018-09-11T05:31:09.792Z,4.07
2018-09-11T05:33:38.215Z,4.10
2018-09-11T05:36:06.655Z,4.17
2018-09-11T05:38:35.064Z,4.10
2018-09-11T05:41:03.511Z,3.93
2018-09-11T05:43:31.919Z,3.50
2018-09-11T05:46:00.383Z,4.33
2018-09-11T05:48:28.790Z,3.27
2018-09-11T05:50:57.246Z,3.70
2018-09-11T05:53:25.657Z,4.10
2018-09-11T05:55:54.089Z,3.30
2018-09-11T05:58:22.581Z,4.03
2018-09-11T06:00:50.927Z,3.83
2018-09-11T06:03:19.385Z,3.90
2018-09-11T06:05:47.879Z,4.07
2018-09-11T06:08:16.217Z,4.60
2018-09-11T06:10:44.624Z,3.90
2018-09-11T06:13:12.998Z,3.70
2018-09-11T06:15:41.400Z,4.03
2018-09-11T06:18:09.796Z,4.40
2018-09-11T06:20:38.195Z,4.00
2018-09-11T06:23:06.601Z,4.30
2018-09-11T06:25:35.050Z,5.03
2018-09-11T06:28:03.444Z,4.50
2018-09-11T06:30:31.849Z,4.70
2018-09-11T06:33:00.308Z,5.03
2018-09-11T06:35:28.809Z,4.70
2018-09-11T06:37:57.200Z,5.00
2018-09-11T06:40:25.612Z,5.50
2018-09-11T06:42:54.044Z,4.23
2018-09-11T06:45:22.427Z,5.60
2018-09-11T06:47:50.827Z,5.70
2018-09-11T06:50:19.895Z,5.17
2018-09-11T06:52:48.368Z,4.37
2018-09-11T06:55:16.827Z,5.53
2018-09-11T06:57:45.280Z,5.87
2018-09-11T07:00:13.727Z,5.77
2018-09-11T07:02:42.140Z,5.10
2018-09-11T07:05:10.545Z,5.90
2018-09-11T07:07:38.931Z,6.10
2018-09-11T07:10:07.476Z,5.07
2018-09-11T07:12:35.996Z,5.37
2018-09-11T07:15:04.448Z,5.00
2018-09-11T07:17:32.871Z,5.50
2018-09-11T07:20:01.424Z,5.90
2018-09-11T07:22:29.736Z,5.50
2018-09-11T07:24:58.180Z,5.63
2018-09-11T07:27:26.591Z,4.87
2018-09-11T07:29:55.020Z,4.73
2018-09-11T07:32:23.513Z,4.37
2018-09-11T07:34:51.887Z,5.17
2018-09-11T07:37:21.088Z,4.53
2018-09-11T07:39:49.487Z,4.70
2018-09-11T07:42:17.906Z,4.13
2018-09-11T07:44:46.329Z,3.87
2018-09-11T07:47:14.768Z,3.60
2018-09-11T07:49:43.205Z,3.47
2018-09-11T07:52:11.632Z,3.03
2018-09-11T07:54:40.053Z,4.00
2018-09-11T07:57:09.559Z,3.23
2018-09-11T07:59:38.017Z,3.30
2018-09-11T08:02:06.956Z,3.40
2018-09-11T08:04:35.368Z,3.50
2018-09-11T08:07:03.855Z,2.80
2018-09-11T08:09:32.279Z,5.10
2018-09-11T08:12:00.798Z,3.20
2018-09-11T08:14:29.155Z,3.10
2018-09-11T08:16:57.564Z,3.23
2018-09-11T08:19:26.004Z,3.13
2018-09-11T08:21:54.443Z,2.90
2018-09-11T08:24:23.591Z,2.87
2018-09-11T08:26:52.032Z,2.97
2018-09-11T08:29:20.467Z,2.93
2018-09-11T08:31:50.848Z,3.00
2018-09-11T08:34:19.311Z,2.83
2018-09-11T08:36:47.733Z,2.60
2018-09-11T08:39:16.128Z,3.03
2018-09-11T08:41:44.544Z,2.77
2018-09-11T08:44:12.957Z,2.60
2018-09-11T08:46:41.368Z,2.90
2018-09-11T08:49:09.774Z,2.70
2018-09-11T08:51:38.212Z,3.07
2018-09-11T08:54:06.656Z,2.87
2018-09-11T08:56:35.089Z,2.93
2018-09-11T08:59:03.537Z,4.30
2018-09-11T09:01:31.960Z,3.13
2018-09-11T09:04:00.388Z,2.40
2018-09-11T09:06:28.832Z,2.30
2018-09-11T09:08:57.288Z,2.63
2018-09-11T09:11:25.722Z,2.60
2018-09-11T09:13:54.127Z,2.20
2018-09-11T09:16:23.218Z,2.07
2018-09-11T09:18:51.676Z,1.77
2018-09-11T09:21:20.100Z,2.07
2018-09-11T09:23:48.515Z,2.23
2018-09-11T09:26:16.928Z,2.17
2018-09-11T09:28:45.391Z,2.27
2018-09-11T09:31:13.795Z,1.57
2018-09-11T09:33:42.503Z,1.47
2018-09-11T09:36:10.909Z,2.07
2018-09-11T09:38:41.224Z,1.73
2018-09-11T09:41:09.629Z,1.70
2018-09-11T09:43:38.063Z,1.80
2018-09-11T09:46:06.497Z,1.43
2018-09-11T09:48:34.944Z,1.53
2018-09-11T09:51:03.529Z,1.60
2018-09-11T09:53:32.011Z,1.50
2018-09-11T09:56:00.443Z,1.53
2018-09-11T09:58:29.144Z,1.87
2018-09-11T10:01:01.757Z,1.80
2018-09-11T10:03:30.808Z,1.60
2018-09-11T10:05:59.216Z,1.40
2018-09-11T10:08:27.653Z,1.80
2018-09-11T10:10:56.069Z,1.93
2018-09-11T10:13:24.495Z,1.70
2018-09-11T10:15:52.904Z,1.60
2018-09-11T10:18:21.348Z,1.60
2018-09-11T10:20:49.763Z,1.37
2018-09-11T10:23:18.267Z,2.33
2018-09-11T10:25:46.746Z,1.47
2018-09-11T10:28:15.275Z,1.43
2018-09-11T10:30:43.699Z,1.60
2018-09-11T10:33:12.393Z,2.00
2018-09-11T10:35:40.799Z,1.63
2018-09-11T10:38:09.242Z,1.40
2018-09-11T10:40:37.635Z,1.57
2018-09-11T10:43:06.152Z,1.50
2018-09-11T10:45:34.555Z,3.70
2018-09-11T10:48:02.968Z,1.47
2018-09-11T10:50:31.364Z,1.50
2018-09-11T10:52:59.825Z,1.53
2018-09-11T10:55:28.249Z,1.20
2018-09-11T10:57:56.667Z,1.40
2018-09-11T11:00:25.146Z,1.50
2018-09-11T11:02:53.512Z,2.00
2018-09-11T11:05:22.539Z,2.20
2018-09-11T11:07:50.935Z,1.90
2018-09-11T11:10:19.360Z,1.50
2018-09-11T11:12:47.786Z,1.90
2018-09-11T11:15:16.176Z,1.40
2018-09-11T11:17:44.607Z,1.43
2018-09-11T11:20:13.006Z,1.60
2018-09-11T11:22:41.448Z,1.07
2018-09-11T11:25:09.907Z,1.97
2018-09-11T11:27:38.317Z,1.30
2018-09-11T11:30:06.857Z,1.80
2018-09-11T11:32:35.264Z,1.77
2018-09-11T11:35:03.773Z,2.33
2018-09-11T11:37:32.226Z,1.53
2018-09-11T11:40:00.628Z,1.93
2018-09-11T11:42:29.108Z,1.63
2018-09-11T11:44:57.456Z,1.57
2018-09-11T11:47:25.871Z,2.17
2018-09-11T11:49:54.282Z,1.93
2018-09-11T11:52:22.712Z,1.50
2018-09-11T11:54:51.133Z,1.80
2018-09-11T11:57:19.625Z,2.20
2018-09-11T11:59:48.076Z,2.10
2018-09-11T12:02:16.534Z,1.53
2018-09-11T12:04:45.003Z,1.80
2018-09-11T12:07:13.479Z,1.53
2018-09-11T12:09:41.910Z,2.00
2018-09-11T12:12:10.432Z,1.60
2018-09-11T12:14:38.889Z,1.70
2018-09-11T12:17:07.651Z,2.00
2018-09-11T12:19:36.224Z,1.47
2018-09-11T12:22:04.728Z,1.80
2018-09-11T12:24:33.401Z,1.63
2018-09-11T12:27:01.977Z,1.83
2018-09-11T12:29:30.448Z,2.10
2018-09-11T12:31:58.906Z,1.80
2018-09-11T12:34:27.393Z,2.07
2018-09-11T12:36:55.820Z,2.40
2018-09-11T12:39:24.268Z,1.93
2018-09-11T12:41:52.695Z,1.77
2018-09-11T12:44:21.123Z,1.80
2018-09-11T12:46:49.739Z,1.87
2018-09-11T12:49:18.044Z,1.80
2018-09-11T12:51:46.463Z,1.83
2018-09-11T12:54:14.922Z,1.97
2018-09-11T12:56:43.591Z,2.03
2018-09-11T12:59:12.151Z,2.90
2018-09-11T13:01:40.585Z,2.50
2018-09-11T13:04:09.325Z,2.23
2018-09-11T13:06:37.759Z,4.00
2018-09-11T13:09:06.919Z,7.13
2018-09-11T13:11:35.379Z,3.47
2018-09-11T13:14:03.875Z,3.13
2018-09-11T13:16:32.313Z,3.90
2018-09-11T13:19:00.761Z,2.23
2018-09-11T13:21:29.201Z,2.97
2018-09-11T13:23:57.664Z,2.47
2018-09-11T13:26:26.090Z,2.17
2018-09-11T13:28:54.548Z,1.83
2018-09-11T13:31:22.992Z,3.60
2018-09-11T13:33:51.464Z,5.07
2018-09-11T13:36:19.902Z,3.57
2018-09-11T13:38:48.382Z,4.00
2018-09-11T13:41:16.805Z,3.63
2018-09-11T13:43:45.257Z,3.63
2018-09-11T13:46:13.732Z,2.07
2018-09-11T13:48:42.492Z,4.00
2018-09-11T13:51:10.908Z,2.07
2018-09-11T13:53:39.328Z,2.00
2018-09-11T13:56:07.785Z,3.57
2018-09-11T13:58:36.296Z,5.37
2018-09-11T14:01:04.741Z,1.73
2018-09-11T14:03:33.176Z,3.00
2018-09-11T14:06:02.691Z,6.13
2018-09-11T14:08:31.245Z,3.53
2018-09-11T14:10:59.779Z,2.50
2018-09-11T14:13:28.300Z,2.07
2018-09-11T14:15:56.738Z,2.00
2018-09-11T14:18:26.657Z,1.90
2018-09-11T14:20:55.058Z,2.57
2018-09-11T14:23:23.476Z,2.50
2018-09-11T14:25:51.877Z,4.60
2018-09-11T14:28:20.318Z,2.63
2018-09-11T14:30:48.728Z,2.00
2018-09-11T14:33:17.146Z,2.00
2018-09-11T14:35:45.612Z,3.00
2018-09-11T14:38:14.241Z,4.20
2018-09-11T14:40:42.690Z,2.23
2018-09-11T14:43:11.491Z,2.40
2018-09-11T14:45:39.908Z,1.90
2018-09-11T14:48:08.344Z,2.10
2018-09-11T14:50:36.830Z,3.50
2018-09-11T14:53:06.313Z,3.20
2018-09-11T14:55:34.721Z,3.37
2018-09-11T14:58:03.139Z,2.00
2018-09-11T15:00:31.537Z,3.53
2018-09-11T15:02:59.958Z,3.73
2018-09-11T15:05:28.345Z,2.40
2018-09-11T15:07:57.380Z,2.00
2018-09-11T15:10:25.809Z,2.40
2018-09-11T15:12:54.196Z,3.00
2018-09-11T15:15:22.594Z,2.70
2018-09-11T15:17:50.988Z,2.60
2018-09-11T15:20:19.420Z,2.70
2018-09-11T15:22:47.816Z,2.07
2018-09-11T15:25:16.261Z,2.97
2018-09-11T15:27:44.683Z,2.40
2018-09-11T15:30:13.191Z,3.77
2018-09-11T15:32:41.571Z,2.93
2018-09-11T15:35:09.995Z,4.30
2018-09-11T15:37:38.433Z,5.30
2018-09-11T15:40:07.195Z,2.70
2018-09-11T15:42:35.579Z,2.93
2018-09-11T15:45:04.089Z,4.53
2018-09-11T15:47:32.535Z,3.17
2018-09-11T15:50:00.948Z,3.70
2018-09-11T15:52:29.378Z,4.63
2018-09-11T15:54:57.796Z,5.60
2018-09-11T15:57:26.215Z,2.90
2018-09-11T15:59:54.655Z,2.27
2018-09-11T16:02:23.044Z,2.13
2018-09-11T16:04:51.447Z,2.23
2018-09-11T16:07:19.844Z,2.10
2018-09-11T16:09:48.248Z,2.13
2018-09-11T16:12:17.477Z,2.50
2018-09-11T16:14:45.871Z,2.40
2018-09-11T16:17:14.256Z,2.73
2018-09-11T16:19:42.664Z,2.40
2018-09-11T16:22:11.091Z,2.47
2018-09-11T16:24:39.484Z,2.00
2018-09-11T16:27:07.860Z,1.60
2018-09-11T16:29:36.278Z,2.20
2018-09-11T16:32:04.671Z,2.60
2018-09-11T16:34:33.095Z,2.77
2018-09-11T16:37:01.477Z,2.20
2018-09-11T16:39:29.867Z,3.17
2018-09-11T16:41:58.254Z,2.60
2018-09-11T16:44:26.664Z,2.00
2018-09-11T16:46:55.040Z,2.10
2018-09-11T16:49:23.445Z,2.40
2018-09-11T16:51:52.036Z,2.20
2018-09-11T16:54:20.439Z,2.37
2018-09-11T16:56:48.824Z,2.50
2018-09-11T16:59:17.264Z,2.17
2018-09-11T17:01:45.658Z,2.63
2018-09-11T17:04:14.076Z,2.40
2018-09-11T17:06:42.492Z,2.27
2018-09-11T17:09:10.957Z,2.60
2018-09-11T17:11:39.376Z,2.50
2018-09-11T17:14:07.816Z,2.50
2018-09-11T17:16:36.251Z,2.10
2018-09-11T17:19:04.715Z,2.10
2018-09-11T17:21:33.107Z,2.17
2018-09-11T17:24:01.531Z,2.23
2018-09-11T17:26:29.931Z,1.90
2018-09-11T17:28:58.340Z,2.10
2018-09-11T17:31:26.752Z,2.03
2018-09-11T17:33:55.184Z,2.20
2018-09-11T17:36:23.668Z,2.20
2018-09-11T17:38:52.373Z,2.10
2018-09-11T17:41:20.755Z,1.97
2018-09-11T17:43:49.167Z,1.93
2018-09-11T17:46:17.574Z,2.50
2018-09-11T17:48:46.064Z,2.33
2018-09-11T17:51:14.496Z,2.53
2018-09-11T17:53:42.924Z,1.83
2018-09-11T17:56:11.338Z,2.07
2018-09-11T17:58:39.772Z,2.03
2018-09-11T18:01:08.265Z,2.23
2018-09-11T18:03:36.655Z,2.10
2018-09-11T18:06:05.100Z,2.37
2018-09-11T18:08:33.543Z,2.53
2018-09-11T18:11:01.940Z,2.10
2018-09-11T18:13:30.341Z,1.33
2018-09-11T18:15:58.784Z,2.00
2018-09-11T18:18:27.188Z,1.60
2018-09-11T18:20:55.596Z,1.90
2018-09-11T18:23:34.972Z,2.00
2018-09-11T18:26:06.776Z,2.30
2018-09-11T18:28:36.517Z,2.47
2018-09-11T18:31:05.577Z,2.20
2018-09-11T18:33:50.898Z,1.80
2018-09-11T18:36:19.308Z,1.70
2018-09-11T18:38:47.929Z,2.20
2018-09-11T18:41:16.352Z,1.70
2018-09-11T18:43:44.759Z,2.33
2018-09-11T18:46:13.207Z,2.50
2018-09-11T18:48:41.582Z,2.37
2018-09-11T18:51:09.983Z,1.93
2018-09-11T18:53:38.377Z,2.20
2018-09-11T18:56:06.903Z,2.00
2018-09-11T18:58:35.344Z,2.47
2018-09-11T19:01:03.836Z,2.40
2018-09-11T19:03:32.232Z,2.30
2018-09-11T19:06:00.640Z,2.50
2018-09-11T19:08:29.072Z,2.03
2018-09-11T19:10:57.536Z,2.07
2018-09-11T19:13:25.939Z,2.40
2018-09-11T19:15:54.395Z,2.77
2018-09-11T19:18:22.832Z,2.80
2018-09-11T19:20:51.249Z,2.33
2018-09-11T19:23:20.489Z,2.97
2018-09-11T19:25:49.048Z,2.67
2018-09-11T19:28:17.447Z,2.27
2018-09-11T19:30:45.944Z,2.37
2018-09-11T19:33:14.344Z,2.30
2018-09-11T19:35:42.780Z,2.07
2018-09-11T19:38:11.184Z,2.90
2018-09-11T19:40:39.596Z,2.50
2018-09-11T19:43:07.999Z,2.20
2018-09-11T19:45:36.444Z,2.33
2018-09-11T19:48:04.871Z,2.13
2018-09-11T19:50:33.327Z,2.47
2018-09-11T19:53:01.708Z,2.10
2018-09-11T19:55:30.116Z,2.80
2018-09-11T19:57:58.616Z,2.33
2018-09-11T20:00:27.925Z,2.50
2018-09-11T20:02:56.307Z,2.60
2018-09-11T20:05:24.722Z,2.23
2018-09-11T20:07:53.112Z,2.80
2018-09-11T20:10:21.508Z,2.90
2018-09-11T20:12:49.935Z,2.40
2018-09-11T20:15:18.331Z,2.33
2018-09-11T20:17:46.767Z,2.43
2018-09-11T20:20:15.224Z,2.50
2018-09-11T20:22:43.622Z,2.60
2018-09-11T20:25:12.064Z,2.70
2018-09-11T20:27:40.455Z,2.33
2018-09-11T20:30:08.912Z,2.70
2018-09-11T20:32:37.292Z,2.60
2018-09-11T20:35:05.729Z,3.03
2018-09-11T20:37:34.184Z,3.03
2018-09-11T20:40:02.567Z,2.50
2018-09-11T20:42:31.004Z,2.93
2018-09-11T20:44:59.452Z,2.97
2018-09-11T20:47:27.796Z,2.53
2018-09-11T20:49:56.267Z,2.30
2018-09-11T20:52:24.660Z,2.43
2018-09-11T20:54:53.051Z,2.20
2018-09-11T20:57:21.468Z,2.33
2018-09-11T20:59:49.892Z,3.13
2018-09-11T21:02:18.299Z,3.00
2018-09-11T21:04:46.709Z,2.73
2018-09-11T21:07:15.104Z,3.03
2018-09-11T21:09:43.584Z,3.00
2018-09-11T21:12:11.976Z,2.30
2018-09-11T21:14:40.384Z,2.50
2018-09-11T21:17:08.911Z,2.67
2018-09-11T21:19:37.664Z,3.03
2018-09-11T21:22:06.097Z,2.70
2018-09-11T21:24:34.518Z,3.07
2018-09-11T21:27:03.059Z,3.03
2018-09-11T21:29:31.447Z,3.33
2018-09-11T21:31:59.856Z,3.07
2018-09-11T21:34:28.242Z,3.23
2018-09-11T21:36:56.648Z,3.27
2018-09-11T21:39:25.068Z,3.13
2018-09-11T21:41:53.555Z,2.83
2018-09-11T21:44:21.967Z,2.90
2018-09-11T21:46:50.398Z,2.63
2018-09-11T21:49:18.813Z,2.20
2018-09-11T21:51:47.259Z,2.37
2018-09-11T21:54:15.646Z,2.77
2018-09-11T21:56:44.086Z,2.23
2018-09-11T21:59:12.807Z,3.03
2018-09-11T22:01:44.077Z,3.30
2018-09-11T22:04:12.589Z,2.27
2018-09-11T22:06:41.020Z,3.60
2018-09-11T22:09:10.636Z,2.30
2018-09-11T22:11:39.383Z,3.20
2018-09-11T22:14:08.243Z,3.03
2018-09-11T22:16:36.723Z,3.13
2018-09-11T22:19:05.125Z,2.83
2018-09-11T22:21:33.888Z,2.60
2018-09-11T22:24:02.315Z,2.60
2018-09-11T22:26:30.714Z,2.40
2018-09-11T22:28:59.315Z,2.73
2018-09-11T22:31:27.723Z,3.10
2018-09-11T22:33:56.172Z,2.67
2018-09-11T22:36:24.979Z,2.73
2018-09-11T22:38:53.359Z,2.77
2018-09-11T22:41:21.759Z,2.60
2018-09-11T22:43:50.556Z,2.60
2018-09-11T22:46:19.016Z,2.97
2018-09-11T22:48:47.410Z,3.43
2018-09-11T22:51:15.839Z,3.13
2018-09-11T22:53:44.226Z,3.63
2018-09-11T22:56:12.648Z,2.97
2018-09-11T22:58:41.061Z,2.70
2018-09-11T23:01:09.529Z,3.33
2018-09-11T23:03:37.908Z,2.77
2018-09-11T23:06:06.339Z,2.40
2018-09-11T23:08:34.719Z,2.70
2018-09-11T23:11:03.143Z,1.90
2018-09-11T23:13:31.543Z,2.33
2018-09-11T23:15:59.988Z,2.50
2018-09-11T23:18:28.378Z,3.10
2018-09-11T23:20:56.807Z,3.70
2018-09-11T23:23:25.200Z,3.70
2018-09-11T23:25:53.595Z,3.00
2018-09-11T23:28:21.973Z,3.00
2018-09-11T23:30:50.431Z,3.00
2018-09-11T23:33:18.803Z,2.60
2018-09-11T23:35:47.201Z,2.80
2018-09-11T23:38:15.585Z,2.40
2018-09-11T23:40:43.979Z,2.43
2018-09-11T23:43:12.373Z,2.37
2018-09-11T23:45:40.817Z,3.33
2018-09-11T23:48:09.191Z,3.00
2018-09-11T23:50:37.608Z,2.77
2018-09-11T23:53:06.233Z,2.60
2018-09-11T23:55:34.699Z,3.10
2018-09-11T23:58:03.113Z,2.33
